createdAt,value
2019-03-11T00:00:59.377Z,86.88
2019-03-11T00:01:59.407Z,87.61
2019-03-11T00:02:59.391Z,87.30
2019-03-11T00:03:59.405Z,87.09
2019-03-11T00:04:59.366Z,87.30
2019-03-11T00:05:59.318Z,87.51
2019-03-11T00:06:59.441Z,87.19
2019-03-11T00:07:59.425Z,87.34
2019-03-11T00:08:59.291Z,87.30
2019-03-11T00:09:59.276Z,87.09
2019-03-11T00:10:59.271Z,87.40
2019-03-11T00:11:59.288Z,87.55
2019-03-11T00:12:59.256Z,87.40
2019-03-11T00:13:59.264Z,87.51
2019-03-11T00:14:59.217Z,87.40
2019-03-11T00:15:59.212Z,87.51
2019-03-11T00:16:59.217Z,86.99
2019-03-11T00:17:59.191Z,86.78
2019-03-11T00:18:59.181Z,86.68
2019-03-11T00:19:59.252Z,86.99
2019-03-11T00:20:59.178Z,87.03
2019-03-11T00:21:59.220Z,86.82
2019-03-11T00:22:59.139Z,86.93
2019-03-11T00:23:59.173Z,87.13
2019-03-11T00:24:59.147Z,87.45
2019-03-11T00:25:59.133Z,87.55
2019-03-11T00:26:59.096Z,87.76
2019-03-11T00:27:59.103Z,87.96
2019-03-11T00:28:59.078Z,87.03
2019-03-11T00:29:59.052Z,87.34
2019-03-11T00:30:59.151Z,87.55
2019-03-11T00:31:59.051Z,87.13
2019-03-11T00:32:59.033Z,86.72
2019-03-11T00:33:59.031Z,87.13
2019-03-11T00:34:59.010Z,86.82
2019-03-11T00:35:59.007Z,87.24
2019-03-11T00:36:59.034Z,87.55
2019-03-11T00:37:58.974Z,87.65
2019-03-11T00:38:58.990Z,86.93
2019-03-11T00:39:58.966Z,86.93
2019-03-11T00:40:58.974Z,86.93
2019-03-11T00:41:58.928Z,86.61
2019-03-11T00:42:58.963Z,86.93
2019-03-11T00:43:58.921Z,86.93
2019-03-11T00:44:59.079Z,86.78
2019-03-11T00:45:58.918Z,86.16
2019-03-11T00:46:58.874Z,86.30
2019-03-11T00:48:02.460Z,86.41
2019-03-11T00:48:58.861Z,86.41
2019-03-11T00:49:58.849Z,86.61
2019-03-11T00:50:58.843Z,85.99
2019-03-11T00:51:58.876Z,86.09
2019-03-11T00:52:58.823Z,85.57
2019-03-11T00:53:58.810Z,86.26
2019-03-11T00:54:58.795Z,86.09
2019-03-11T00:55:58.790Z,86.51
2019-03-11T00:56:58.813Z,86.51
2019-03-11T00:57:58.762Z,86.30
2019-03-11T00:58:58.749Z,86.72
2019-03-11T00:59:58.731Z,86.30
2019-03-11T01:00:58.731Z,86.09
2019-03-11T01:01:58.714Z,85.57
2019-03-11T01:02:58.738Z,86.41
2019-03-11T01:03:58.741Z,85.36
2019-03-11T01:04:58.689Z,86.09
2019-03-11T01:05:58.687Z,85.57
2019-03-11T01:06:58.661Z,86.51
2019-03-11T01:07:58.698Z,85.68
2019-03-11T01:08:58.642Z,85.05
2019-03-11T01:09:58.624Z,85.47
2019-03-11T01:10:58.617Z,85.26
2019-03-11T01:11:58.610Z,84.95
2019-03-11T01:12:58.603Z,85.36
2019-03-11T01:13:58.632Z,85.36
2019-03-11T01:14:58.582Z,84.74
2019-03-11T01:15:58.563Z,84.95
2019-03-11T01:16:58.557Z,85.16
2019-03-11T01:17:58.541Z,85.05
2019-03-11T01:18:58.551Z,84.84
2019-03-11T01:19:58.940Z,85.36
2019-03-11T01:20:58.538Z,84.84
2019-03-11T01:21:58.547Z,85.57
2019-03-11T01:22:58.536Z,84.95
2019-03-11T01:23:58.505Z,84.74
2019-03-11T01:24:58.485Z,85.16
2019-03-11T01:25:58.503Z,85.26
2019-03-11T01:26:58.496Z,84.43
2019-03-11T01:27:58.472Z,84.74
2019-03-11T01:28:58.465Z,84.53
2019-03-11T01:29:58.591Z,84.53
2019-03-11T01:30:58.440Z,84.53
2019-03-11T01:31:58.408Z,84.22
2019-03-11T01:32:58.380Z,84.53
2019-03-11T01:33:58.379Z,84.43
2019-03-11T01:34:58.363Z,84.64
2019-03-11T01:35:58.351Z,84.43
2019-03-11T01:36:58.396Z,84.95
2019-03-11T01:37:58.332Z,85.05
2019-03-11T01:38:58.313Z,84.84
2019-03-11T01:39:58.390Z,84.95
2019-03-11T01:40:58.297Z,84.95
2019-03-11T01:41:58.281Z,84.84
2019-03-11T01:42:58.272Z,85.16
2019-03-11T01:43:58.267Z,85.05
2019-03-11T01:44:58.254Z,84.74
2019-03-11T01:45:58.280Z,84.53
2019-03-11T01:46:58.250Z,84.53
2019-03-11T01:47:58.230Z,85.47
2019-03-11T01:48:58.220Z,84.74
2019-03-11T01:49:58.255Z,84.53
2019-03-11T01:50:58.184Z,85.36
2019-03-11T01:51:58.175Z,85.99
2019-03-11T01:52:58.176Z,85.36
2019-03-11T01:53:58.185Z,85.26
2019-03-11T01:54:58.146Z,85.57
2019-03-11T01:55:58.181Z,84.74
2019-03-11T01:56:58.169Z,85.20
2019-03-11T01:57:58.111Z,84.95
2019-03-11T01:58:58.192Z,84.53
2019-03-11T01:59:58.089Z,84.74
2019-03-11T02:00:58.089Z,84.84
2019-03-11T02:01:58.113Z,85.05
2019-03-11T02:02:58.069Z,84.64
2019-03-11T02:03:58.054Z,84.74
2019-03-11T02:05:04.848Z,84.74
2019-03-11T02:05:58.039Z,85.16
2019-03-11T02:06:58.085Z,84.84
2019-03-11T02:07:58.013Z,84.74
2019-03-11T02:08:58.052Z,84.95
2019-03-11T02:09:57.992Z,85.05
2019-03-11T02:10:57.994Z,85.16
2019-03-11T02:11:57.976Z,84.84
2019-03-11T02:12:57.994Z,84.43
2019-03-11T02:13:57.936Z,84.53
2019-03-11T02:14:58.017Z,84.01
2019-03-11T02:15:57.941Z,84.12
2019-03-11T02:16:57.912Z,84.12
2019-03-11T02:17:57.906Z,84.12
2019-03-11T02:18:57.931Z,84.22
2019-03-11T02:19:57.881Z,84.01
2019-03-11T02:20:57.872Z,84.01
2019-03-11T02:21:57.858Z,84.53
2019-03-11T02:22:57.840Z,84.43
2019-03-11T02:23:57.905Z,84.43
2019-03-11T02:24:57.830Z,84.33
2019-03-11T02:25:57.835Z,83.81
2019-03-11T02:26:57.792Z,83.70
2019-03-11T02:27:57.790Z,83.91
2019-03-11T02:28:57.834Z,83.91
2019-03-11T02:29:57.782Z,83.91
2019-03-11T02:30:57.774Z,83.81
2019-03-11T02:31:57.751Z,84.12
2019-03-11T02:32:57.749Z,84.01
2019-03-11T02:33:57.748Z,84.12
2019-03-11T02:34:57.767Z,84.01
2019-03-11T02:35:57.726Z,83.81
2019-03-11T02:36:57.702Z,84.22
2019-03-11T02:37:57.689Z,84.22
2019-03-11T02:38:57.680Z,83.60
2019-03-11T02:39:57.664Z,83.91
2019-03-11T02:40:57.708Z,83.81
2019-03-11T02:41:57.651Z,83.81
2019-03-11T02:42:57.640Z,83.70
2019-03-11T02:43:57.628Z,83.60
2019-03-11T02:44:57.605Z,84.12
2019-03-11T02:45:57.664Z,83.91
2019-03-11T02:46:57.597Z,83.87
2019-03-11T02:47:57.592Z,84.74
2019-03-11T02:48:57.700Z,84.33
2019-03-11T02:49:57.588Z,83.91
2019-03-11T02:50:57.585Z,84.33
2019-03-11T02:51:57.531Z,84.22
2019-03-11T02:52:57.518Z,84.68
2019-03-11T02:53:57.512Z,84.33
2019-03-11T02:54:57.507Z,85.26
2019-03-11T02:55:57.488Z,85.93
2019-03-11T02:56:57.540Z,84.99
2019-03-11T02:57:57.473Z,85.82
2019-03-11T02:58:57.481Z,84.89
2019-03-11T02:59:57.455Z,85.41
2019-03-11T03:00:57.446Z,86.34
2019-03-11T03:01:57.423Z,86.24
2019-03-11T03:02:57.461Z,86.65
2019-03-11T03:03:57.405Z,85.93
2019-03-11T03:04:57.392Z,86.65
2019-03-11T03:05:57.394Z,86.96
2019-03-11T03:06:57.375Z,86.86
2019-03-11T03:07:57.403Z,86.80
2019-03-11T03:08:57.424Z,86.80
2019-03-11T03:09:57.346Z,87.38
2019-03-11T03:10:57.327Z,87.07
2019-03-11T03:11:57.329Z,87.32
2019-03-11T03:12:57.312Z,87.38
2019-03-11T03:13:57.317Z,87.38
2019-03-11T03:14:57.356Z,87.17
2019-03-11T03:15:57.273Z,87.27
2019-03-11T03:16:57.269Z,86.76
2019-03-11T03:17:57.260Z,86.96
2019-03-11T03:18:57.240Z,87.52
2019-03-11T03:19:57.231Z,87.32
2019-03-11T03:20:57.258Z,87.32
2019-03-11T03:21:57.241Z,87.32
2019-03-11T03:22:57.202Z,87.73
2019-03-11T03:23:57.192Z,87.63
2019-03-11T03:24:57.197Z,87.84
2019-03-11T03:25:57.238Z,87.79
2019-03-11T03:26:57.180Z,87.21
2019-03-11T03:27:57.278Z,87.21
2019-03-11T03:28:57.140Z,87.42
2019-03-11T03:29:57.134Z,88.04
2019-03-11T03:30:57.117Z,88.15
2019-03-11T03:31:57.149Z,88.98
2019-03-11T03:32:57.127Z,88.98
2019-03-11T03:33:57.086Z,88.15
2019-03-11T03:34:57.093Z,88.98
2019-03-11T03:35:57.056Z,88.98
2019-03-11T03:36:57.050Z,88.77
2019-03-11T03:37:57.077Z,88.87
2019-03-11T03:38:57.031Z,88.77
2019-03-11T03:39:57.024Z,88.67
2019-03-11T03:40:57.005Z,88.25
2019-03-11T03:41:57.043Z,88.98
2019-03-11T03:42:57.307Z,88.67
2019-03-11T03:43:57.002Z,88.56
2019-03-11T03:44:57.028Z,88.87
2019-03-11T03:45:56.950Z,88.67
2019-03-11T03:46:56.941Z,88.98
2019-03-11T03:47:56.946Z,88.87
2019-03-11T03:48:56.920Z,88.77
2019-03-11T03:49:56.956Z,88.62
2019-03-11T03:50:56.915Z,88.98
2019-03-11T03:51:56.995Z,88.67
2019-03-11T03:52:56.878Z,89.08
2019-03-11T03:53:56.861Z,88.67
2019-03-11T03:54:56.905Z,89.29
2019-03-11T03:55:56.845Z,89.50
2019-03-11T03:56:56.840Z,88.98
2019-03-11T03:57:56.872Z,88.98
2019-03-11T03:58:56.821Z,89.39
2019-03-11T03:59:56.802Z,89.39
2019-03-11T04:00:56.829Z,89.08
2019-03-11T04:01:56.784Z,89.29
2019-03-11T04:02:56.782Z,89.18
2019-03-11T04:03:56.800Z,89.29
2019-03-11T04:04:56.747Z,88.98
2019-03-11T04:05:56.819Z,89.39
2019-03-11T04:06:56.729Z,89.29
2019-03-11T04:07:56.715Z,89.50
2019-03-11T04:08:56.715Z,90.12
2019-03-11T04:09:56.726Z,90.12
2019-03-11T04:10:56.728Z,89.81
2019-03-11T04:11:56.725Z,89.81
2019-03-11T04:12:56.666Z,89.81
2019-03-11T04:13:56.651Z,89.81
2019-03-11T04:14:56.670Z,89.60
2019-03-11T04:15:56.658Z,90.12
2019-03-11T04:16:56.629Z,90.12
2019-03-11T04:17:56.603Z,90.23
2019-03-11T04:18:56.599Z,89.92
2019-03-11T04:19:56.660Z,90.02
2019-03-11T04:20:56.600Z,90.12
2019-03-11T04:21:56.578Z,89.92
2019-03-11T04:22:56.552Z,89.60
2019-03-11T04:23:56.538Z,90.02
2019-03-11T04:24:56.527Z,91.06
2019-03-11T04:25:56.555Z,91.27
2019-03-11T04:26:56.506Z,90.44
2019-03-11T04:27:56.497Z,90.44
2019-03-11T04:28:56.496Z,90.85
2019-03-11T04:29:56.468Z,90.23
2019-03-11T04:30:56.537Z,90.64
2019-03-11T04:31:56.469Z,89.50
2019-03-11T04:32:56.439Z,89.81
2019-03-11T04:33:56.439Z,89.81
2019-03-11T04:34:56.427Z,89.81
2019-03-11T04:35:56.420Z,89.60
2019-03-11T04:36:56.443Z,89.92
2019-03-11T04:37:56.390Z,89.46
2019-03-11T04:38:56.380Z,89.81
2019-03-11T04:39:56.445Z,89.92
2019-03-11T04:40:56.362Z,89.70
2019-03-11T04:41:56.391Z,89.46
2019-03-11T04:42:56.339Z,89.67
2019-03-11T04:43:56.322Z,89.77
2019-03-11T04:44:56.315Z,89.56
2019-03-11T04:45:56.297Z,90.19
2019-03-11T04:46:56.339Z,89.36
2019-03-11T04:47:56.341Z,90.08
2019-03-11T04:48:56.265Z,89.50
2019-03-11T04:49:56.255Z,90.08
2019-03-11T04:50:56.246Z,89.56
2019-03-11T04:51:56.253Z,89.67
2019-03-11T04:52:56.220Z,90.02
2019-03-11T04:53:56.248Z,89.70
2019-03-11T04:54:56.237Z,89.81
2019-03-11T04:55:56.199Z,89.56
2019-03-11T04:56:56.211Z,89.18
2019-03-11T04:57:56.188Z,89.56
2019-03-11T04:58:56.203Z,89.60
2019-03-11T04:59:56.167Z,90.23
2019-03-11T05:00:56.140Z,89.87
2019-03-11T05:01:56.130Z,89.18
2019-03-11T05:02:56.129Z,89.39
2019-03-11T05:03:56.105Z,89.77
2019-03-11T05:04:56.148Z,89.56
2019-03-11T05:06:02.899Z,89.77
2019-03-11T05:06:56.085Z,89.36
2019-03-11T05:07:56.074Z,89.36
2019-03-11T05:08:56.092Z,89.25
2019-03-11T05:09:56.060Z,89.15
2019-03-11T05:10:56.031Z,89.36
2019-03-11T05:11:56.023Z,89.36
2019-03-11T05:12:56.012Z,89.25
2019-03-11T05:13:56.039Z,89.15
2019-03-11T05:14:55.995Z,89.25
2019-03-11T05:15:55.982Z,89.25
2019-03-11T05:16:55.963Z,89.15
2019-03-11T05:17:55.952Z,88.84
2019-03-11T05:18:55.975Z,88.62
2019-03-11T05:19:55.957Z,88.84
2019-03-11T05:20:55.955Z,88.84
2019-03-11T05:21:55.940Z,88.73
2019-03-11T05:22:55.899Z,89.25
2019-03-11T05:23:55.934Z,88.62
2019-03-11T05:24:55.878Z,88.42
2019-03-11T05:25:55.914Z,88.69
2019-03-11T05:26:55.866Z,87.76
2019-03-11T05:27:55.851Z,87.45
2019-03-11T05:28:55.830Z,87.79
2019-03-11T05:29:55.827Z,88.90
2019-03-11T05:30:55.811Z,88.59
2019-03-11T05:31:55.845Z,88.90
2019-03-11T05:32:55.873Z,89.00
2019-03-11T05:33:55.772Z,89.15
2019-03-11T05:34:55.775Z,89.11
2019-03-11T05:35:55.778Z,89.21
2019-03-11T05:36:55.750Z,89.11
2019-03-11T05:37:55.777Z,89.25
2019-03-11T05:38:55.723Z,88.69
2019-03-11T05:39:55.711Z,88.90
2019-03-11T05:40:55.712Z,88.79
2019-03-11T05:41:55.711Z,88.17
2019-03-11T05:42:55.748Z,88.28
2019-03-11T05:43:55.701Z,88.10
2019-03-11T05:44:55.666Z,88.69
2019-03-11T05:45:55.709Z,89.00
2019-03-11T05:46:55.709Z,88.48
2019-03-11T05:47:55.648Z,88.79
2019-03-11T05:48:55.697Z,88.94
2019-03-11T05:49:55.642Z,88.73
2019-03-11T05:50:55.638Z,88.62
2019-03-11T05:51:55.646Z,88.90
2019-03-11T05:52:55.610Z,88.69
2019-03-11T05:53:55.573Z,88.73
2019-03-11T05:54:55.598Z,88.94
2019-03-11T05:55:55.674Z,87.55
2019-03-11T05:56:55.607Z,87.86
2019-03-11T05:57:55.555Z,87.13
2019-03-11T05:58:55.514Z,87.03
2019-03-11T05:59:55.498Z,87.13
2019-03-11T06:00:55.499Z,86.93
2019-03-11T06:01:55.482Z,86.72
2019-03-11T06:02:55.530Z,86.41
2019-03-11T06:03:55.472Z,87.13
2019-03-11T06:04:55.448Z,86.19
2019-03-11T06:05:55.440Z,85.26
2019-03-11T06:06:55.435Z,85.99
2019-03-11T06:07:55.480Z,84.84
2019-03-11T06:08:55.479Z,84.81
2019-03-11T06:09:55.402Z,85.47
2019-03-11T06:10:55.383Z,84.33
2019-03-11T06:11:55.375Z,84.81
2019-03-11T06:12:55.395Z,85.02
2019-03-11T06:13:55.431Z,84.29
2019-03-11T06:14:55.350Z,84.60
2019-03-11T06:15:55.341Z,83.87
2019-03-11T06:16:55.312Z,82.63
2019-03-11T06:17:55.316Z,82.80
2019-03-11T06:18:55.331Z,82.59
2019-03-11T06:19:55.365Z,82.63
2019-03-11T06:20:55.296Z,82.70
2019-03-11T06:21:55.277Z,83.01
2019-03-11T06:22:55.274Z,82.80
2019-03-11T06:23:55.257Z,82.34
2019-03-11T06:24:55.354Z,81.97
2019-03-11T06:25:55.218Z,81.66
2019-03-11T06:26:55.209Z,81.62
2019-03-11T06:27:55.203Z,81.62
2019-03-11T06:28:55.249Z,81.82
2019-03-11T06:29:55.190Z,81.30
2019-03-11T06:30:55.217Z,81.10
2019-03-11T06:31:55.180Z,80.99
2019-03-11T06:32:55.152Z,81.10
2019-03-11T06:33:55.150Z,81.41
2019-03-11T06:34:55.128Z,81.10
2019-03-11T06:35:55.149Z,80.37
2019-03-11T06:36:55.106Z,80.06
2019-03-11T06:37:55.095Z,80.58
2019-03-11T06:39:05.273Z,81.10
2019-03-11T06:39:56.083Z,80.99
2019-03-11T06:40:55.052Z,80.58
2019-03-11T06:41:55.075Z,79.96
2019-03-11T06:42:55.051Z,80.58
2019-03-11T06:43:55.027Z,80.68
2019-03-11T06:44:55.067Z,79.75
2019-03-11T06:45:55.021Z,80.33
2019-03-11T06:46:54.986Z,79.55
2019-03-11T06:47:54.982Z,79.34
2019-03-11T06:48:54.985Z,78.41
2019-03-11T06:49:54.954Z,79.41
2019-03-11T06:50:55.010Z,79.82
2019-03-11T06:51:54.932Z,79.41
2019-03-11T06:52:54.927Z,79.41
2019-03-11T06:53:55.039Z,78.37
2019-03-11T06:54:54.933Z,79.20
2019-03-11T06:55:55.275Z,79.16
2019-03-11T06:56:54.962Z,79.41
2019-03-11T06:57:54.885Z,78.64
2019-03-11T06:58:54.863Z,78.33
2019-03-11T06:59:54.859Z,78.23
2019-03-11T07:00:54.891Z,77.67
2019-03-11T07:01:54.818Z,77.15
2019-03-11T07:02:54.827Z,77.57
2019-03-11T07:03:54.812Z,77.26
2019-03-11T07:04:54.818Z,76.74
2019-03-11T07:05:54.811Z,75.71
2019-03-11T07:06:55.107Z,77.36
2019-03-11T07:07:54.768Z,76.84
2019-03-11T07:08:54.820Z,75.92
2019-03-11T07:09:54.843Z,75.98
2019-03-11T07:10:54.734Z,75.98
2019-03-11T07:11:54.753Z,75.26
2019-03-11T07:12:54.704Z,75.57
2019-03-11T07:13:54.763Z,75.63
2019-03-11T07:14:54.682Z,74.81
2019-03-11T07:15:54.664Z,73.88
2019-03-11T07:16:54.661Z,74.50
2019-03-11T07:17:54.675Z,74.43
2019-03-11T07:18:54.649Z,75.12
2019-03-11T07:19:54.679Z,75.78
2019-03-11T07:20:54.614Z,75.98
2019-03-11T07:21:54.612Z,75.92
2019-03-11T07:22:54.599Z,77.05
2019-03-11T07:23:54.582Z,77.47
2019-03-11T07:24:54.640Z,77.09
2019-03-11T07:25:54.577Z,77.50
2019-03-11T07:26:54.556Z,78.16
2019-03-11T07:27:54.549Z,78.12
2019-03-11T07:28:54.538Z,78.33
2019-03-11T07:29:54.564Z,78.02
2019-03-11T07:30:54.568Z,78.99
2019-03-11T07:31:54.530Z,77.09
2019-03-11T07:32:54.491Z,75.81
2019-03-11T07:33:54.474Z,72.36
2019-03-11T07:34:54.455Z,71.78
2019-03-11T07:35:54.449Z,72.36
2019-03-11T07:36:54.515Z,73.98
2019-03-11T07:37:54.422Z,73.77
2019-03-11T07:38:54.421Z,73.57
2019-03-11T07:39:54.399Z,74.19
2019-03-11T07:40:54.410Z,73.67
2019-03-11T07:41:54.380Z,74.60
2019-03-11T07:42:54.453Z,73.54
2019-03-11T07:43:54.379Z,73.54
2019-03-11T07:44:54.357Z,73.33
2019-03-11T07:45:54.353Z,74.81
2019-03-11T07:46:54.333Z,74.95
2019-03-11T07:47:54.370Z,75.26
2019-03-11T07:48:54.339Z,75.98
2019-03-11T07:49:54.346Z,75.98
2019-03-11T07:50:54.319Z,75.88
2019-03-11T07:51:54.272Z,76.12
2019-03-11T07:52:54.266Z,77.26
2019-03-11T07:53:54.330Z,76.43
2019-03-11T07:54:54.244Z,76.84
2019-03-11T07:55:54.237Z,77.05
2019-03-11T07:56:54.225Z,77.26
2019-03-11T07:57:54.206Z,77.19
2019-03-11T07:58:54.194Z,77.05
2019-03-11T07:59:54.256Z,77.26
2019-03-11T08:00:54.424Z,75.92
2019-03-11T08:01:54.172Z,76.05
2019-03-11T08:02:54.156Z,74.91
2019-03-11T08:03:54.185Z,74.40
2019-03-11T08:04:54.134Z,75.46
2019-03-11T08:05:54.119Z,74.95
2019-03-11T08:06:59.449Z,75.43
2019-03-11T08:07:54.124Z,74.36
2019-03-11T08:08:54.087Z,73.74
2019-03-11T08:09:54.072Z,73.36
2019-03-11T08:10:54.069Z,73.88
2019-03-11T08:11:54.046Z,73.98
2019-03-11T08:12:54.088Z,74.53
2019-03-11T08:13:54.087Z,73.71
2019-03-11T08:14:54.029Z,74.74
2019-03-11T08:15:54.068Z,74.74
2019-03-11T08:16:54.033Z,74.19
2019-03-11T08:17:54.326Z,73.57
2019-03-11T08:18:53.983Z,73.67
2019-03-11T08:19:53.982Z,72.39
2019-03-11T08:20:54.031Z,72.39
2019-03-11T08:21:53.952Z,72.74
2019-03-11T08:22:53.947Z,72.53
2019-03-11T08:23:53.925Z,73.36
2019-03-11T08:24:53.923Z,73.98
2019-03-11T08:25:53.973Z,73.46
2019-03-11T08:26:53.925Z,73.67
2019-03-11T08:27:53.882Z,73.67
2019-03-11T08:28:53.928Z,72.56
2019-03-11T08:29:53.850Z,73.57
2019-03-11T08:30:53.850Z,73.57
2019-03-11T08:31:53.881Z,72.85
2019-03-11T08:32:53.846Z,73.02
2019-03-11T08:33:53.810Z,71.67
2019-03-11T08:34:53.799Z,71.22
2019-03-11T08:35:53.806Z,70.74
2019-03-11T08:36:53.885Z,71.19
2019-03-11T08:37:53.821Z,71.39
2019-03-11T08:38:53.810Z,71.47
2019-03-11T08:39:53.743Z,71.36
2019-03-11T08:40:53.788Z,70.61
2019-03-11T08:41:53.725Z,69.78
2019-03-11T08:42:53.729Z,70.92
2019-03-11T08:43:53.776Z,70.81
2019-03-11T08:44:53.703Z,70.32
2019-03-11T08:45:53.685Z,70.84
2019-03-11T08:46:53.674Z,71.15
2019-03-11T08:47:53.664Z,71.36
2019-03-11T08:48:53.683Z,71.08
2019-03-11T08:49:53.736Z,71.50
2019-03-11T08:50:53.634Z,71.81
2019-03-11T08:51:53.618Z,71.98
2019-03-11T08:52:53.599Z,71.67
2019-03-11T08:53:53.601Z,70.22
2019-03-11T08:54:53.650Z,70.84
2019-03-11T08:55:53.580Z,70.84
2019-03-11T08:56:53.577Z,71.91
2019-03-11T08:57:53.549Z,71.60
2019-03-11T08:58:53.533Z,71.81
2019-03-11T08:59:53.549Z,72.02
2019-03-11T09:00:53.559Z,72.43
2019-03-11T09:01:53.513Z,72.33
2019-03-11T09:02:53.502Z,72.56
2019-03-11T09:03:53.511Z,72.43
2019-03-11T09:04:53.473Z,72.15
2019-03-11T09:05:53.501Z,72.02
2019-03-11T09:06:53.748Z,71.60
2019-03-11T09:07:53.443Z,71.73
2019-03-11T09:08:53.429Z,71.70
2019-03-11T09:09:53.423Z,72.22
2019-03-11T09:10:53.460Z,72.22
2019-03-11T09:11:53.424Z,71.91
2019-03-11T09:12:53.460Z,71.50
2019-03-11T09:13:53.383Z,71.08
2019-03-11T09:14:53.395Z,70.87
2019-03-11T09:15:53.359Z,71.08
2019-03-11T09:16:53.370Z,71.60
2019-03-11T09:17:53.377Z,71.50
2019-03-11T09:18:53.332Z,71.39
2019-03-11T09:19:53.310Z,72.02
2019-03-11T09:20:53.316Z,71.94
2019-03-11T09:21:53.291Z,71.91
2019-03-11T09:22:53.321Z,71.73
2019-03-11T09:23:53.303Z,72.15
2019-03-11T09:24:53.270Z,72.39
2019-03-11T09:25:53.249Z,72.81
2019-03-11T09:26:53.239Z,73.11
2019-03-11T09:27:53.273Z,73.53
2019-03-11T09:28:53.277Z,73.53
2019-03-11T09:29:53.221Z,73.63
2019-03-11T09:30:53.207Z,74.53
2019-03-11T09:31:53.258Z,73.71
2019-03-11T09:32:53.168Z,73.71
2019-03-11T09:33:53.231Z,73.36
2019-03-11T09:34:53.179Z,72.85
2019-03-11T09:35:53.203Z,72.33
2019-03-11T09:36:53.119Z,72.43
2019-03-11T09:37:53.116Z,71.39
2019-03-11T09:38:53.107Z,70.74
2019-03-11T09:39:53.090Z,70.22
2019-03-11T09:40:53.134Z,70.32
2019-03-11T09:41:53.094Z,70.22
2019-03-11T09:42:53.084Z,70.64
2019-03-11T09:43:53.040Z,71.19
2019-03-11T09:44:53.044Z,71.36
2019-03-11T09:45:53.072Z,71.22
2019-03-11T09:46:53.017Z,70.16
2019-03-11T09:47:53.005Z,68.99
2019-03-11T09:48:52.993Z,68.99
2019-03-11T09:49:53.004Z,68.96
2019-03-11T09:50:53.037Z,67.58
2019-03-11T09:51:52.973Z,66.91
2019-03-11T09:52:52.953Z,65.12
2019-03-11T09:53:52.933Z,64.61
2019-03-11T09:54:52.932Z,64.50
2019-03-11T09:55:52.937Z,62.93
2019-03-11T09:56:52.972Z,62.93
2019-03-11T09:57:52.916Z,62.65
2019-03-11T09:58:52.957Z,62.93
2019-03-11T09:59:52.864Z,62.62
2019-03-11T10:00:52.862Z,62.13
2019-03-11T10:01:52.860Z,62.54
2019-03-11T10:02:53.574Z,62.10
2019-03-11T10:03:52.869Z,62.62
2019-03-11T10:04:52.896Z,62.79
2019-03-11T10:05:52.798Z,60.40
2019-03-11T10:06:52.799Z,59.68
2019-03-11T10:07:52.848Z,60.27
2019-03-11T10:08:52.787Z,59.86
2019-03-11T10:09:52.894Z,61.25
2019-03-11T10:10:52.799Z,62.10
2019-03-11T10:11:52.740Z,63.29
2019-03-11T10:12:52.733Z,64.43
2019-03-11T10:13:52.718Z,64.12
2019-03-11T10:14:52.700Z,63.60
2019-03-11T10:15:52.772Z,63.95
2019-03-11T10:16:52.676Z,64.15
2019-03-11T10:17:52.682Z,64.84
2019-03-11T10:18:52.673Z,65.05
2019-03-11T10:19:52.680Z,64.74
2019-03-11T10:20:52.638Z,64.56
2019-03-11T10:21:52.680Z,64.98
2019-03-11T10:22:52.639Z,65.39
2019-03-11T10:23:52.617Z,66.42
2019-03-11T10:24:52.592Z,66.45
2019-03-11T10:25:52.585Z,67.69
2019-03-11T10:26:52.585Z,69.68
2019-03-11T10:27:52.654Z,69.58
2019-03-11T10:28:52.624Z,69.17
2019-03-11T10:29:52.548Z,69.58
2019-03-11T10:30:52.541Z,69.48
2019-03-11T10:31:52.518Z,69.48
2019-03-11T10:32:52.510Z,70.95
2019-03-11T10:33:52.520Z,70.43
2019-03-11T10:34:52.545Z,70.72
2019-03-11T10:35:52.469Z,69.68
2019-03-11T10:36:52.458Z,70.03
2019-03-11T10:37:52.480Z,70.82
2019-03-11T10:38:52.447Z,69.71
2019-03-11T10:39:52.495Z,69.68
2019-03-11T10:40:52.419Z,69.71
2019-03-11T10:41:52.409Z,69.82
2019-03-11T10:42:52.412Z,69.99
2019-03-11T10:43:52.394Z,70.17
2019-03-11T10:44:52.376Z,70.17
2019-03-11T10:45:52.409Z,69.24
2019-03-11T10:46:52.357Z,67.86
2019-03-11T10:47:52.386Z,68.66
2019-03-11T10:48:52.343Z,67.42
2019-03-11T10:49:52.316Z,67.42
2019-03-11T10:50:52.536Z,67.60
2019-03-11T10:51:52.331Z,67.29
2019-03-11T10:52:52.336Z,66.87
2019-03-11T10:53:52.342Z,66.94
2019-03-11T10:54:52.268Z,65.09
2019-03-11T10:55:52.252Z,67.49
2019-03-11T10:56:52.322Z,67.29
2019-03-11T10:57:52.227Z,67.08
2019-03-11T10:58:52.219Z,66.43
2019-03-11T10:59:52.251Z,65.26
2019-03-11T11:00:52.193Z,64.00
2019-03-11T11:01:52.201Z,63.15
2019-03-11T11:02:52.231Z,63.49
2019-03-11T11:03:52.240Z,63.18
2019-03-11T11:04:52.225Z,63.49
2019-03-11T11:05:52.207Z,63.62
2019-03-11T11:06:52.137Z,64.17
2019-03-11T11:07:52.169Z,65.22
2019-03-11T11:08:52.118Z,64.71
2019-03-11T11:09:52.108Z,65.02
2019-03-11T11:10:52.093Z,66.60
2019-03-11T11:11:52.077Z,66.60
2019-03-11T11:12:52.127Z,67.35
2019-03-11T11:13:52.109Z,67.76
2019-03-11T11:14:52.039Z,68.51
2019-03-11T11:15:52.034Z,69.24
2019-03-11T11:16:52.016Z,69.03
2019-03-11T11:17:52.060Z,69.99
2019-03-11T11:18:52.066Z,70.09
2019-03-11T11:20:02.619Z,70.40
2019-03-11T11:20:53.012Z,71.23
2019-03-11T11:21:51.958Z,71.47
2019-03-11T11:22:51.970Z,70.43
2019-03-11T11:23:51.954Z,71.57
2019-03-11T11:24:51.977Z,71.88
2019-03-11T11:25:51.922Z,72.64
2019-03-11T11:26:51.909Z,72.33
2019-03-11T11:27:51.901Z,72.85
2019-03-11T11:28:51.899Z,73.88
2019-03-11T11:29:51.892Z,72.12
2019-03-11T11:30:51.950Z,72.09
2019-03-11T11:31:51.851Z,72.61
2019-03-11T11:32:51.845Z,72.53
2019-03-11T11:33:51.863Z,73.05
2019-03-11T11:34:51.830Z,73.71
2019-03-11T11:35:51.810Z,74.33
2019-03-11T11:36:51.849Z,75.88
2019-03-11T11:37:51.789Z,75.78
2019-03-11T11:38:51.783Z,75.98
2019-03-11T11:39:51.761Z,75.26
2019-03-11T11:40:51.811Z,75.05
2019-03-11T11:41:51.760Z,75.26
2019-03-11T11:42:51.820Z,75.50
2019-03-11T11:43:51.724Z,75.91
2019-03-11T11:44:51.713Z,75.70
2019-03-11T11:45:51.715Z,77.15
2019-03-11T11:46:51.701Z,77.26
2019-03-11T11:47:51.689Z,77.56
2019-03-11T11:48:51.713Z,77.60
2019-03-11T11:49:51.648Z,77.60
2019-03-11T11:50:51.652Z,78.22
2019-03-11T11:51:51.656Z,78.85
2019-03-11T11:52:51.645Z,78.33
2019-03-11T11:53:51.844Z,78.53
2019-03-11T11:54:51.661Z,79.09
2019-03-11T11:55:57.752Z,79.71
2019-03-11T11:56:52.581Z,80.64
2019-03-11T11:57:51.569Z,79.85
2019-03-11T11:58:51.561Z,80.47
2019-03-11T11:59:54.357Z,81.09
2019-03-11T12:00:51.532Z,81.65
2019-03-11T12:01:51.528Z,80.99
2019-03-11T12:02:51.526Z,81.09
2019-03-11T12:03:51.504Z,81.09
2019-03-11T12:04:51.493Z,81.05
2019-03-11T12:05:51.549Z,81.16
2019-03-11T12:06:51.509Z,79.91
2019-03-11T12:09:01.532Z,80.85
2019-03-11T12:10:01.297Z,79.36
2019-03-11T12:11:01.263Z,79.40
2019-03-11T12:12:01.958Z,79.16
2019-03-11T12:13:01.216Z,79.91
2019-03-11T12:14:01.273Z,81.02
2019-03-11T12:15:01.214Z,80.12
2019-03-11T12:16:01.227Z,80.19
2019-03-11T12:17:01.200Z,79.57
2019-03-11T12:18:01.167Z,78.39
2019-03-11T12:19:01.178Z,78.50
2019-03-11T12:20:01.223Z,78.19
2019-03-11T12:21:01.137Z,79.53
2019-03-11T12:22:01.142Z,78.15
2019-03-11T12:23:01.126Z,78.46
2019-03-11T12:24:01.185Z,77.05
2019-03-11T12:25:01.117Z,79.22
2019-03-11T12:26:01.120Z,78.08
2019-03-11T12:27:01.141Z,77.98
2019-03-11T12:28:01.118Z,77.81
2019-03-11T12:29:01.123Z,78.74
2019-03-11T12:30:01.203Z,79.36
2019-03-11T12:31:01.106Z,78.95
2019-03-11T12:32:01.147Z,79.88
2019-03-11T12:33:01.117Z,80.08
2019-03-11T12:34:01.076Z,80.50
2019-03-11T12:35:01.076Z,80.91
2019-03-11T12:36:01.075Z,80.40
2019-03-11T12:37:01.078Z,79.88
2019-03-11T12:38:01.227Z,80.40
2019-03-11T12:39:15.441Z,79.63
2019-03-11T12:40:00.996Z,78.91
2019-03-11T12:41:01.164Z,77.67
2019-03-11T12:42:00.925Z,77.87
2019-03-11T12:43:00.897Z,78.50
2019-03-11T12:44:00.897Z,77.22
2019-03-11T12:45:00.879Z,77.94
2019-03-11T12:46:01.166Z,78.15
2019-03-11T12:47:00.883Z,78.39
2019-03-11T12:48:00.853Z,78.05
2019-03-11T12:49:00.842Z,77.91
2019-03-11T12:50:00.850Z,77.33
2019-03-11T12:51:00.807Z,76.81
2019-03-11T12:52:00.974Z,76.56
2019-03-11T12:53:00.785Z,75.95
2019-03-11T12:54:00.780Z,74.98